createdAt,value
2023-03-22T00:01:23.862Z,21.42
2023-03-22T00:06:16.826Z,22.85
2023-03-22T00:11:08.882Z,22.65
2023-03-22T00:16:02.893Z,22.70
2023-03-22T00:20:57.470Z,23.40
2023-03-22T00:25:49.524Z,21.48
2023-03-22T00:30:41.267Z,21.15
2023-03-22T00:35:33.328Z,19.98
2023-03-22T00:40:25.045Z,20.67
2023-03-22T00:45:16.835Z,22.33
2023-03-22T00:50:08.949Z,19.23
2023-03-22T00:55:01.297Z,18.75
2023-03-22T00:59:54.079Z,19.73
2023-03-22T01:04:50.001Z,19.83
2023-03-22T01:09:41.977Z,19.75
2023-03-22T01:14:33.655Z,19.33
2023-03-22T01:19:27.086Z,19.58
2023-03-22T01:24:18.784Z,18.77
2023-03-22T01:29:10.514Z,16.48
2023-03-22T01:34:03.666Z,16.55
2023-03-22T01:38:55.534Z,15.70
2023-03-22T01:44:12.698Z,15.00
2023-03-22T01:49:08.623Z,15.75
2023-03-22T01:54:07.591Z,15.43
2023-03-22T01:59:01.085Z,14.73
2023-03-22T02:04:07.320Z,14.27
2023-03-22T02:08:59.517Z,14.90
2023-03-22T02:14:05.448Z,14.98
2023-03-22T02:19:52.069Z,14.82
2023-03-22T02:25:04.061Z,14.20
2023-03-22T02:30:11.228Z,14.35
2023-03-22T02:35:37.066Z,13.82
2023-03-22T02:40:33.174Z,14.05
2023-03-22T02:45:39.358Z,13.77
2023-03-22T02:50:40.346Z,14.15
2023-03-22T02:55:40.417Z,13.77
2023-03-22T03:00:34.104Z,12.60
2023-03-22T03:05:27.534Z,11.23
2023-03-22T03:10:20.753Z,10.90
2023-03-22T03:15:16.703Z,10.05
2023-03-22T03:20:30.215Z,9.60
2023-03-22T03:25:43.454Z,7.35
2023-03-22T03:30:43.307Z,9.15
2023-03-22T03:36:04.854Z,8.32
2023-03-22T03:41:12.716Z,9.40
2023-03-22T03:46:04.913Z,8.45
2023-03-22T03:50:58.409Z,9.15
2023-03-22T03:55:50.352Z,8.48
2023-03-22T04:00:43.030Z,9.65
2023-03-22T04:05:51.974Z,8.57
2023-03-22T04:10:44.170Z,8.50
2023-03-22T04:15:36.028Z,8.40
2023-03-22T04:20:31.855Z,7.85
2023-03-22T04:25:23.873Z,8.18
2023-03-22T04:30:24.830Z,7.80
2023-03-22T04:35:22.859Z,7.95
2023-03-22T04:40:20.909Z,7.80
2023-03-22T04:45:22.513Z,7.45
2023-03-22T04:50:20.995Z,7.63
2023-03-22T04:55:17.372Z,6.32
2023-03-22T05:00:11.052Z,7.03
2023-03-22T05:05:03.279Z,7.55
2023-03-22T05:10:00.095Z,6.68
2023-03-22T05:14:52.033Z,6.28
2023-03-22T05:19:48.413Z,6.32
2023-03-22T05:24:40.863Z,5.68
2023-03-22T05:29:45.217Z,6.30
2023-03-22T05:34:51.185Z,6.40
2023-03-22T05:39:50.872Z,6.32
2023-03-22T05:44:44.101Z,6.07
2023-03-22T05:49:38.160Z,5.85
2023-03-22T05:54:30.698Z,5.75
2023-03-22T05:59:23.352Z,6.50
2023-03-22T06:04:15.618Z,6.00
2023-03-22T06:09:17.860Z,5.07
2023-03-22T06:14:14.378Z,6.65
2023-03-22T06:19:17.777Z,5.72
2023-03-22T06:24:10.155Z,5.32
2023-03-22T06:29:03.711Z,5.60
2023-03-22T06:33:57.372Z,6.50
2023-03-22T06:39:02.962Z,6.07
2023-03-22T06:43:55.054Z,4.78
2023-03-22T06:49:12.807Z,5.05
2023-03-22T06:54:05.699Z,5.82
2023-03-22T06:58:58.537Z,5.90
2023-03-22T07:03:51.026Z,6.68
2023-03-22T07:08:46.769Z,5.80
2023-03-22T07:13:42.724Z,5.53
2023-03-22T07:18:39.605Z,5.90
2023-03-22T07:23:31.728Z,6.20
2023-03-22T07:28:30.070Z,6.45
2023-03-22T07:33:23.790Z,6.28
2023-03-22T07:38:16.293Z,5.30
2023-03-22T07:43:08.359Z,6.60
2023-03-22T07:48:23.036Z,7.07
2023-03-22T07:53:43.503Z,7.15
2023-03-22T07:58:36.567Z,6.43
2023-03-22T08:03:29.710Z,7.25
2023-03-22T08:08:26.562Z,8.93
2023-03-22T08:13:18.695Z,10.27
2023-03-22T08:18:10.885Z,12.80
2023-03-22T08:23:05.708Z,14.38
2023-03-22T08:28:16.908Z,15.82
2023-03-22T08:33:08.789Z,17.15
2023-03-22T08:38:02.226Z,17.80
2023-03-22T08:43:04.250Z,19.10
2023-03-22T08:47:57.808Z,43.70
2023-03-22T08:52:50.959Z,175.10
2023-03-22T08:57:58.887Z,44.78
2023-03-22T09:02:57.632Z,45.47
2023-03-22T09:07:53.505Z,39.53
2023-03-22T09:13:06.681Z,38.50
2023-03-22T09:17:59.095Z,39.08
2023-03-22T09:22:52.163Z,40.75
2023-03-22T09:27:45.103Z,40.80
2023-03-22T09:32:36.921Z,41.03
2023-03-22T09:37:30.532Z,40.72
2023-03-22T09:42:38.345Z,40.00
2023-03-22T09:47:44.781Z,39.38
2023-03-22T09:52:37.158Z,39.92
2023-03-22T09:57:36.496Z,38.95
2023-03-22T10:02:46.479Z,37.35
2023-03-22T10:07:50.401Z,40.85
2023-03-22T10:13:06.441Z,37.60
2023-03-22T10:18:02.316Z,38.60
2023-03-22T10:22:56.169Z,37.28
2023-03-22T10:27:51.496Z,38.97
2023-03-22T10:32:57.453Z,39.13
2023-03-22T10:37:51.906Z,39.55
2023-03-22T10:42:50.586Z,40.97
2023-03-22T10:47:44.538Z,39.47
2023-03-22T10:52:59.477Z,41.72
2023-03-22T10:58:14.878Z,42.63
2023-03-22T11:03:07.252Z,39.75
2023-03-22T11:07:59.159Z,38.88
2023-03-22T11:13:12.251Z,39.30
2023-03-22T11:18:16.124Z,35.22
2023-03-22T11:23:13.280Z,33.60
2023-03-22T11:28:04.912Z,34.40
2023-03-22T11:33:19.379Z,32.60
2023-03-22T11:38:36.684Z,34.95
2023-03-22T11:43:37.725Z,33.47
2023-03-22T11:48:31.961Z,33.20
2023-03-22T11:53:27.038Z,33.83
2023-03-22T11:58:42.744Z,34.05
2023-03-22T12:03:39.533Z,33.67
2023-03-22T12:08:44.090Z,33.40
2023-03-22T12:13:50.070Z,30.70
2023-03-22T12:19:02.110Z,31.15
2023-03-22T12:23:56.266Z,29.98
2023-03-22T12:29:01.933Z,31.88
2023-03-22T12:34:15.919Z,30.60
2023-03-22T12:39:09.596Z,32.05
2023-03-22T12:44:29.467Z,30.25
2023-03-22T12:49:29.440Z,30.10
2023-03-22T12:54:24.310Z,29.65
2023-03-22T12:59:20.264Z,31.58
2023-03-22T13:04:36.781Z,31.00
2023-03-22T13:09:28.421Z,30.80
2023-03-22T13:15:00.405Z,30.85
2023-03-22T13:19:55.130Z,29.23
2023-03-22T13:25:19.084Z,29.42
2023-03-22T13:30:35.440Z,29.05
2023-03-22T13:35:42.096Z,29.10
2023-03-22T13:40:44.532Z,25.98
2023-03-22T13:45:36.185Z,25.83
2023-03-22T13:50:30.152Z,26.10
2023-03-22T13:55:42.607Z,26.52
2023-03-22T14:00:39.104Z,25.50
2023-03-22T14:05:36.468Z,24.92
2023-03-22T14:10:36.561Z,23.98
2023-03-22T14:15:45.339Z,28.10
2023-03-22T14:20:39.736Z,24.35
2023-03-22T14:55:22.476Z,22.63
2023-03-22T15:00:17.074Z,20.48
2023-03-22T15:05:13.961Z,20.23
2023-03-22T15:10:14.768Z,19.80
2023-03-22T15:15:07.399Z,17.08
2023-03-22T15:19:59.367Z,21.83
2023-03-22T15:24:54.133Z,21.20
2023-03-22T15:29:46.594Z,21.13
2023-03-22T15:34:38.548Z,19.38
2023-03-22T15:39:39.200Z,19.48
2023-03-22T15:44:36.414Z,18.48
2023-03-22T15:49:38.762Z,16.63
2023-03-22T15:54:33.625Z,16.65
2023-03-22T15:59:31.238Z,17.05
2023-03-22T16:04:25.576Z,16.70
2023-03-22T16:09:18.284Z,16.33
2023-03-22T16:14:14.991Z,19.02
2023-03-22T16:19:07.116Z,18.20
2023-03-22T16:23:59.186Z,16.33
2023-03-22T16:28:51.173Z,16.55
2023-03-22T16:33:44.043Z,14.20
2023-03-22T16:38:35.961Z,15.43
2023-03-22T16:43:27.773Z,16.92
2023-03-22T16:48:20.047Z,15.60
2023-03-22T16:53:15.601Z,16.65
2023-03-22T16:58:07.367Z,16.70
2023-03-22T17:03:01.843Z,14.40
2023-03-22T17:07:57.125Z,15.25
2023-03-22T17:12:49.875Z,17.02
2023-03-22T17:17:41.668Z,15.32
2023-03-22T17:22:33.497Z,16.85
2023-03-22T17:27:25.696Z,18.05
2023-03-22T17:32:26.873Z,18.10
2023-03-22T17:37:29.252Z,17.35
2023-03-22T17:42:21.070Z,18.00
2023-03-22T17:52:14.580Z,15.82
2023-03-22T17:57:36.384Z,15.85
2023-03-22T18:02:27.283Z,17.75
2023-03-22T18:07:21.914Z,18.13
2023-03-22T18:12:13.667Z,18.23
2023-03-22T18:17:05.461Z,18.40
2023-03-22T18:21:57.966Z,18.13
2023-03-22T18:27:06.546Z,19.85
2023-03-22T18:32:12.230Z,23.80
2023-03-22T18:37:10.245Z,22.60
2023-03-22T18:42:16.612Z,26.30
2023-03-22T18:47:16.635Z,28.48
2023-03-22T18:57:03.071Z,30.52
2023-03-22T19:02:08.229Z,26.77
2023-03-22T19:07:04.381Z,27.08
2023-03-22T19:11:58.124Z,28.73
2023-03-22T19:16:49.972Z,31.13
2023-03-22T19:21:41.818Z,28.42
2023-03-22T19:26:34.135Z,28.17
2023-03-22T19:31:27.939Z,27.13
2023-03-22T19:36:19.703Z,25.63
2023-03-22T19:41:33.772Z,23.80
2023-03-22T19:46:23.307Z,28.30
2023-03-22T19:51:17.271Z,25.27
2023-03-22T19:56:10.707Z,26.63
2023-03-22T20:01:09.903Z,24.75
2023-03-22T20:06:11.464Z,23.60
2023-03-22T20:11:06.673Z,25.50
2023-03-22T20:15:58.994Z,25.73
2023-03-22T20:20:54.604Z,25.45
2023-03-22T20:25:56.208Z,25.00
2023-03-22T20:30:48.060Z,25.92
2023-03-22T20:35:40.387Z,26.52
2023-03-22T20:40:32.389Z,24.55
2023-03-22T20:45:24.164Z,21.58
2023-03-22T20:50:15.992Z,22.70
2023-03-22T20:55:08.376Z,21.00
2023-03-22T21:00:01.300Z,20.48
2023-03-22T21:04:53.171Z,17.67
2023-03-22T21:09:44.981Z,16.35
2023-03-22T21:14:36.986Z,17.13
2023-03-22T21:19:29.088Z,17.00
2023-03-22T21:24:21.009Z,13.80
2023-03-22T21:29:12.841Z,9.88
2023-03-22T21:34:04.677Z,9.52
2023-03-22T21:38:56.541Z,10.43
2023-03-22T21:43:55.322Z,8.30
2023-03-22T21:48:47.073Z,4.93
2023-03-22T21:53:38.989Z,4.13
2023-03-22T21:58:30.932Z,4.90
2023-03-22T22:03:22.816Z,5.18
2023-03-22T22:08:14.815Z,4.82
2023-03-22T22:13:06.940Z,4.32
2023-03-22T22:17:58.727Z,3.65
2023-03-22T22:22:51.328Z,3.72
2023-03-22T22:27:44.762Z,3.22
2023-03-22T22:32:40.710Z,3.92
2023-03-22T22:37:32.854Z,3.58
2023-03-22T22:42:25.701Z,3.50
2023-03-22T22:47:17.548Z,3.05
2023-03-22T22:52:09.449Z,3.75
2023-03-22T22:57:01.973Z,3.72
2023-03-22T23:01:53.744Z,3.20
2023-03-22T23:06:45.813Z,3.20
2023-03-22T23:11:38.511Z,2.92
2023-03-22T23:16:32.651Z,2.92
2023-03-22T23:21:30.228Z,2.97
2023-03-22T23:26:24.754Z,2.97
2023-03-22T23:31:16.928Z,2.78
2023-03-22T23:36:20.795Z,3.13
2023-03-22T23:41:12.747Z,3.00
2023-03-22T23:46:04.552Z,3.15
2023-03-22T23:50:56.862Z,3.05
2023-03-22T23:55:48.705Z,3.15
